Time;durP1;ratioP1;P1;durP2;ratioP2;P2;SDS_P1;SDS_P2;PMS_P1;PMS_P2;Temp;Humidity;BMP_temperature;BMP_pressure;BME280_temperature;BME280_humidity;BME280_pressure;Samples;Min_cycle;Max_cycle;Signal;HPM_P1;HPM_P2
2022/11/11 00:01:44;;;;;;;36.78;18.25;;;10.00;99.90;;;;;;5057498;28;20266;-81
2022/11/11 00:04:52;;;;;;;31.73;18.05;;;10.10;99.90;;;;;;5060310;28;22817;-79
2022/11/11 00:08:00;;;;;;;31.10;18.55;;;10.00;99.90;;;;;;5056005;28;20231;-80
2022/11/11 00:11:09;;;;;;;29.80;17.23;;;10.10;99.90;;;;;;5054375;28;20251;-79
2022/11/11 00:14:16;;;;;;;35.85;18.42;;;10.10;99.90;;;;;;5055275;28;20369;-79
2022/11/11 00:27:46;;;;;;;32.20;19.35;;;10.00;99.90;;;;;;5062068;28;20307;-80
2022/11/11 00:31:01;;;;;;;31.17;18.92;;;10.00;99.90;;;;;;5059790;28;20258;-80
2022/11/11 00:34:09;;;;;;;31.88;18.52;;;10.00;99.90;;;;;;5065943;28;20275;-81
2022/11/11 00:37:16;;;;;;;30.92;18.52;;;10.00;99.90;;;;;;5066863;28;20345;-81
2022/11/11 00:40:23;;;;;;;28.13;18.33;;;10.00;99.90;;;;;;5064963;28;20220;-81
2022/11/11 00:43:30;;;;;;;35.40;19.08;;;10.00;99.90;;;;;;5060339;28;20248;-82
2022/11/11 00:53:34;;;;;;;26.63;17.73;;;10.00;99.90;;;;;;5058325;28;20587;-81
2022/11/11 00:56:41;;;;;;;34.63;17.80;;;10.10;99.90;;;;;;5061373;28;20722;-81
2022/11/11 00:59:48;;;;;;;27.15;17.35;;;10.00;99.90;;;;;;5059023;28;20833;-82
2022/11/11 01:02:55;;;;;;;28.10;17.63;;;10.00;99.90;;;;;;5064807;28;20224;-80
2022/11/11 01:06:04;;;;;;;26.65;17.92;;;10.10;99.90;;;;;;5066625;28;20797;-82
2022/11/11 01:09:12;;;;;;;34.03;18.08;;;10.10;99.90;;;;;;5058174;28;20291;-82
2022/11/11 01:12:20;;;;;;;29.13;17.05;;;10.10;99.90;;;;;;5058257;28;20228;-83
2022/11/11 01:15:27;;;;;;;32.28;18.20;;;10.20;99.90;;;;;;5065139;28;20223;-80
2022/11/11 01:18:35;;;;;;;27.45;17.27;;;10.20;99.90;;;;;;5065627;28;20276;-79
2022/11/11 01:21:42;;;;;;;27.40;17.88;;;10.20;99.90;;;;;;5060469;28;20306;-79
2022/11/11 01:24:51;;;;;;;27.10;17.08;;;10.30;99.90;;;;;;5063501;28;20220;-80
2022/11/11 01:27:59;;;;;;;28.67;17.45;;;10.30;99.90;;;;;;5070508;28;20239;-80
2022/11/11 01:31:09;;;;;;;28.83;17.55;;;10.40;99.90;;;;;;5067997;28;20215;-81
2022/11/11 01:34:16;;;;;;;27.73;18.15;;;10.40;99.90;;;;;;5061669;28;20216;-80
2022/11/11 01:37:23;;;;;;;31.02;17.85;;;10.40;99.90;;;;;;5066160;28;20667;-82
2022/11/11 01:40:41;;;;;;;30.17;18.08;;;10.40;99.90;;;;;;5063434;28;20267;-81
2022/11/11 01:43:48;;;;;;;28.67;17.67;;;10.50;99.90;;;;;;5063689;28;20271;-88
2022/11/11 01:46:59;;;;;;;30.35;17.30;;;10.50;99.90;;;;;;5064751;28;20277;-86
2022/11/11 01:50:08;;;;;;;28.00;17.27;;;10.50;99.90;;;;;;5065191;28;20212;-87
2022/11/11 01:53:15;;;;;;;26.52;17.15;;;10.60;99.90;;;;;;5061817;28;20621;-85
2022/11/11 01:56:24;;;;;;;28.42;17.98;;;10.50;99.90;;;;;;5066847;28;20216;-86
2022/11/11 01:59:32;;;;;;;27.73;18.05;;;10.50;99.90;;;;;;5065794;28;20242;-85
2022/11/11 02:02:43;;;;;;;31.63;17.48;;;10.50;99.90;;;;;;5064199;28;20637;-81
2022/11/11 02:05:54;;;;;;;29.75;18.20;;;10.50;99.90;;;;;;5064351;28;20220;-85
2022/11/11 02:09:03;;;;;;;28.63;17.10;;;10.50;99.90;;;;;;5068086;28;20220;-85
2022/11/11 02:15:37;;;;;;;30.70;17.55;;;10.50;99.90;;;;;;5065032;28;20248;-86
2022/11/11 02:18:44;;;;;;;28.83;17.00;;;10.50;99.90;;;;;;5066652;28;20230;-85
2022/11/11 02:21:59;;;;;;;26.65;16.38;;;10.50;99.90;;;;;;5068870;28;20306;-85
2022/11/11 02:25:10;;;;;;;24.95;16.20;;;10.50;99.90;;;;;;5063596;28;20225;-83
2022/11/11 02:28:20;;;;;;;27.48;16.60;;;10.40;99.90;;;;;;5061481;28;20310;-83
2022/11/11 02:31:28;;;;;;;29.38;16.20;;;10.40;99.90;;;;;;5061526;28;20544;-83
2022/11/11 02:34:35;;;;;;;31.20;16.73;;;10.40;99.90;;;;;;5061084;28;20572;-84
2022/11/11 02:37:44;;;;;;;25.77;15.85;;;10.40;99.90;;;;;;5063949;28;20865;-83
2022/11/11 02:44:18;;;;;;;26.30;16.45;;;10.40;99.90;;;;;;5067965;28;20216;-84
2022/11/11 02:47:26;;;;;;;29.13;16.42;;;10.30;99.90;;;;;;5064848;28;20358;-84
2022/11/11 02:50:34;;;;;;;30.05;16.80;;;10.20;99.90;;;;;;5066574;28;20228;-83
2022/11/11 02:53:41;;;;;;;28.75;16.52;;;10.20;99.90;;;;;;5059683;28;20294;-85
2022/11/11 02:57:08;;;;;;;28.77;15.70;;;10.30;99.90;;;;;;5059219;28;20599;-83
2022/11/11 03:00:17;;;;;;;23.60;16.45;;;10.20;99.90;;;;;;5061173;28;20236;-83
2022/11/11 03:03:25;;;;;;;28.92;16.38;;;10.20;99.90;;;;;;5065165;28;20781;-84
2022/11/11 03:06:33;;;;;;;26.00;15.85;;;10.20;99.90;;;;;;5068130;28;20273;-86
2022/11/11 03:09:40;;;;;;;25.98;15.50;;;10.10;99.90;;;;;;5074355;28;20471;-87
2022/11/11 03:12:49;;;;;;;28.33;16.75;;;10.10;99.90;;;;;;5067184;28;20306;-85
2022/11/11 03:15:56;;;;;;;25.98;15.02;;;10.20;99.90;;;;;;5067310;28;20223;-80
2022/11/11 03:19:02;;;;;;;25.70;15.93;;;10.20;99.90;;;;;;5066461;28;20228;-84
2022/11/11 03:22:10;;;;;;;27.92;16.13;;;10.10;99.90;;;;;;5066318;28;20289;-83
2022/11/11 03:25:38;;;;;;;29.35;16.52;;;10.10;99.90;;;;;;5064014;28;20632;-80
2022/11/11 03:28:48;;;;;;;29.92;16.88;;;10.10;99.90;;;;;;5062527;28;20255;-80
2022/11/11 03:31:56;;;;;;;28.60;16.50;;;10.10;99.90;;;;;;5064832;28;20302;-80
2022/11/11 03:35:03;;;;;;;32.72;17.58;;;10.10;99.90;;;;;;5052513;28;20227;-81
2022/11/11 03:38:14;;;;;;;27.33;15.60;;;10.00;99.90;;;;;;5062191;28;20694;-82
2022/11/11 03:41:22;;;;;;;26.27;16.17;;;10.00;99.90;;;;;;5062959;28;20691;-81
2022/11/11 03:44:30;;;;;;;26.30;16.10;;;10.10;99.90;;;;;;5063711;28;20268;-79
2022/11/11 03:47:37;;;;;;;26.40;16.10;;;10.10;99.90;;;;;;5063638;28;20731;-79
2022/11/11 03:50:46;;;;;;;28.33;16.02;;;10.10;99.90;;;;;;5058204;28;20231;-79
2022/11/11 03:53:54;;;;;;;30.23;16.98;;;10.20;99.90;;;;;;5060385;28;20228;-82
2022/11/11 04:00:29;;;;;;;32.80;16.05;;;10.10;99.90;;;;;;5061287;28;20489;-82
2022/11/11 04:10:25;;;;;;;29.60;15.90;;;10.10;99.90;;;;;;5061824;28;20224;-82
2022/11/11 04:16:59;;;;;;;24.23;15.45;;;10.10;99.90;;;;;;5064673;28;21206;-81
2022/11/11 04:23:33;;;;;;;27.52;14.38;;;9.90;99.90;;;;;;5060170;28;20240;-81
2022/11/11 04:26:39;;;;;;;28.50;14.38;;;10.00;99.90;;;;;;5060606;28;20224;-84
2022/11/11 04:29:47;;;;;;;27.80;14.93;;;9.90;99.90;;;;;;5069041;28;20315;-83
2022/11/11 04:32:55;;;;;;;25.27;14.50;;;9.90;99.90;;;;;;5066246;28;20237;-84
2022/11/11 04:36:02;;;;;;;25.27;15.38;;;10.00;99.90;;;;;;5057071;28;20964;-83
2022/11/11 04:42:35;;;;;;;28.52;14.63;;;10.00;99.90;;;;;;5062097;28;20967;-80
2022/11/11 04:45:41;;;;;;;21.77;13.90;;;10.00;99.90;;;;;;5058329;28;20324;-81
2022/11/11 04:48:49;;;;;;;22.63;15.52;;;10.00;99.90;;;;;;5063156;28;20315;-85
2022/11/11 05:09:08;;;;;;;24.38;14.00;;;10.00;99.90;;;;;;5063838;28;20220;-86
2022/11/11 05:12:14;;;;;;;24.17;13.23;;;10.00;99.90;;;;;;5066484;28;20227;-86
2022/11/11 05:22:18;;;;;;;24.52;13.75;;;9.90;99.90;;;;;;5066139;28;20246;-82
2022/11/11 05:25:24;;;;;;;25.70;13.27;;;10.00;99.90;;;;;;5061341;28;20223;-81
2022/11/11 05:28:31;;;;;;;21.42;13.57;;;10.00;99.90;;;;;;5066000;28;20207;-81
2022/11/11 05:31:39;;;;;;;21.95;13.05;;;9.90;99.90;;;;;;5061178;28;20224;-81
2022/11/11 05:34:46;;;;;;;22.13;14.38;;;9.70;99.90;;;;;;5065674;28;20216;-81
2022/11/11 05:41:22;;;;;;;21.83;13.73;;;9.70;99.90;;;;;;5065583;28;20224;-81
2022/11/11 05:44:29;;;;;;;24.70;13.27;;;9.70;99.90;;;;;;5060698;28;20220;-81
2022/11/11 05:47:36;;;;;;;22.00;12.55;;;9.80;99.90;;;;;;5066754;28;20720;-80
2022/11/11 05:50:43;;;;;;;28.58;13.52;;;9.80;99.90;;;;;;5067696;28;20270;-79
2022/11/11 05:53:52;;;;;;;23.17;12.70;;;9.90;99.90;;;;;;5066185;28;20329;-82
2022/11/11 05:57:00;;;;;;;24.63;13.25;;;9.90;99.90;;;;;;5067231;28;20224;-86
2022/11/11 06:00:09;;;;;;;23.60;13.80;;;9.90;99.90;;;;;;5075312;28;20223;-90
2022/11/11 06:03:16;;;;;;;25.85;12.75;;;9.80;99.90;;;;;;5080983;28;20272;-85
2022/11/11 06:06:23;;;;;;;23.48;12.85;;;9.90;99.90;;;;;;5071267;28;20228;-87
2022/11/11 06:09:32;;;;;;;23.15;12.82;;;9.90;99.90;;;;;;5064540;28;20236;-84
2022/11/11 06:13:00;;;;;;;19.88;11.82;;;9.90;99.90;;;;;;5057623;28;20216;-84
2022/11/11 06:16:08;;;;;;;26.13;12.93;;;9.90;99.90;;;;;;5065071;28;20232;-82
2022/11/11 06:19:15;;;;;;;22.55;13.00;;;10.00;99.90;;;;;;5071072;28;20239;-81
2022/11/11 06:22:55;;;;;;;25.25;13.60;;;9.90;99.90;;;;;;5071413;28;20878;-82
2022/11/11 06:29:18;;;;;;;24.30;12.85;;;10.00;99.90;;;;;;5071178;28;20216;-87
2022/11/11 06:32:25;;;;;;;22.75;12.60;;;10.10;99.90;;;;;;5063949;28;20274;-88
2022/11/11 06:35:33;;;;;;;23.02;12.27;;;10.10;99.90;;;;;;5067473;28;20747;-80
2022/11/11 06:38:40;;;;;;;21.42;12.80;;;10.10;99.90;;;;;;5056022;28;20219;-84
2022/11/11 06:41:48;;;;;;;22.05;12.35;;;10.20;99.90;;;;;;5068325;28;20316;-81
2022/11/11 06:44:56;;;;;;;20.02;12.25;;;10.10;99.90;;;;;;5062940;28;20231;-80
2022/11/11 06:48:04;;;;;;;26.13;13.10;;;10.10;99.90;;;;;;5065908;28;20318;-79
2022/11/11 06:51:13;;;;;;;22.42;12.73;;;10.20;99.90;;;;;;5061686;28;20311;-84
2022/11/11 06:54:20;;;;;;;23.15;13.27;;;10.20;99.90;;;;;;5067362;28;20311;-88
2022/11/11 06:57:28;;;;;;;27.65;13.20;;;10.10;99.90;;;;;;5063813;28;20216;-83
2022/11/11 07:00:36;;;;;;;21.73;12.25;;;10.20;99.90;;;;;;5062822;28;20786;-80
2022/11/11 07:03:44;;;;;;;20.05;12.20;;;10.10;99.90;;;;;;5061281;28;20283;-86
2022/11/11 07:06:51;;;;;;;23.00;12.95;;;10.10;99.90;;;;;;5058967;28;20216;-83
2022/11/11 07:09:58;;;;;;;23.67;12.68;;;10.10;99.90;;;;;;5061186;28;20224;-83
2022/11/11 07:13:07;;;;;;;19.52;12.13;;;10.10;99.90;;;;;;5061065;28;20230;-84
2022/11/11 07:16:14;;;;;;;23.83;11.85;;;10.10;99.90;;;;;;5057746;28;20229;-83
2022/11/11 07:19:21;;;;;;;19.20;11.48;;;10.20;99.90;;;;;;5061324;28;20310;-83
2022/11/11 07:22:28;;;;;;;25.40;12.95;;;10.10;99.90;;;;;;5062137;28;20227;-85
2022/11/11 07:25:40;;;;;;;22.52;11.95;;;10.30;99.90;;;;;;5064083;28;20220;-84
2022/11/11 07:28:49;;;;;;;21.17;12.23;;;10.30;99.90;;;;;;5057181;28;20227;-84
2022/11/11 07:31:56;;;;;;;21.42;12.02;;;10.30;99.90;;;;;;5061843;28;20231;-84
2022/11/11 07:35:04;;;;;;;18.25;11.20;;;10.20;99.90;;;;;;5061984;28;20749;-84
2022/11/11 07:38:11;;;;;;;20.67;11.68;;;10.30;99.90;;;;;;5053603;28;20219;-83
2022/11/11 07:41:18;;;;;;;19.67;11.07;;;10.50;99.90;;;;;;5053929;28;21300;-83
2022/11/11 07:44:27;;;;;;;20.85;11.50;;;10.40;99.90;;;;;;5062861;28;20648;-83
2022/11/11 07:47:35;;;;;;;21.42;11.73;;;10.50;99.90;;;;;;5055973;28;20220;-84
2022/11/11 07:50:42;;;;;;;25.90;12.27;;;10.60;99.90;;;;;;5058854;28;20269;-84
2022/11/11 07:53:49;;;;;;;19.33;11.02;;;10.70;99.90;;;;;;5053737;28;20239;-83
2022/11/11 07:56:57;;;;;;;21.40;11.48;;;10.70;99.90;;;;;;5057475;28;20243;-85
2022/11/11 08:00:07;;;;;;;21.95;11.63;;;10.70;99.90;;;;;;5061170;28;20270;-84
2022/11/11 08:03:14;;;;;;;23.05;11.93;;;10.70;99.90;;;;;;5062018;28;20576;-83
2022/11/11 08:06:22;;;;;;;20.73;11.20;;;10.70;99.90;;;;;;5057630;28;20223;-84
2022/11/11 08:09:29;;;;;;;22.38;11.00;;;10.70;99.90;;;;;;5058568;28;20307;-84
2022/11/11 08:16:05;;;;;;;21.13;10.90;;;11.00;99.90;;;;;;5056960;28;20240;-83
2022/11/11 08:19:12;;;;;;;23.92;11.38;;;11.00;99.90;;;;;;5059424;28;20223;-83
2022/11/11 08:22:19;;;;;;;22.33;11.48;;;11.20;99.90;;;;;;5066373;28;20289;-82
2022/11/11 08:25:27;;;;;;;22.02;10.27;;;11.10;99.90;;;;;;5062972;28;20765;-82
2022/11/11 08:28:35;;;;;;;22.65;10.65;;;11.10;99.90;;;;;;5063603;28;20212;-82
2022/11/11 08:31:43;;;;;;;21.45;11.45;;;11.00;99.90;;;;;;5052965;28;20303;-83
2022/11/11 08:34:50;;;;;;;20.52;11.20;;;11.20;99.90;;;;;;5061302;28;20330;-84
2022/11/11 08:38:01;;;;;;;21.33;10.70;;;11.30;99.90;;;;;;5059898;28;20228;-84
2022/11/11 08:41:08;;;;;;;24.35;11.80;;;11.30;99.90;;;;;;5060721;28;20273;-83
2022/11/11 08:44:15;;;;;;;20.30;11.00;;;11.50;99.90;;;;;;5064708;28;20223;-84
2022/11/11 08:47:24;;;;;;;19.38;10.57;;;11.60;99.90;;;;;;5067059;28;20227;-85
2022/11/11 08:50:31;;;;;;;23.15;10.68;;;11.70;99.90;;;;;;5064284;28;20278;-85
2022/11/11 08:53:38;;;;;;;19.27;10.88;;;11.70;99.90;;;;;;5064549;28;20228;-85
2022/11/11 08:56:45;;;;;;;22.25;10.73;;;11.80;99.90;;;;;;5060096;28;20223;-83
2022/11/11 08:59:53;;;;;;;16.73;9.75;;;11.80;99.90;;;;;;5063004;28;20244;-86
2022/11/11 09:03:03;;;;;;;20.98;10.43;;;11.90;99.90;;;;;;5062869;28;20212;-85
2022/11/11 09:06:10;;;;;;;18.60;9.95;;;12.00;99.90;;;;;;5064964;28;20216;-87
2022/11/11 09:09:18;;;;;;;18.63;9.38;;;12.10;99.90;;;;;;5062490;28;20232;-85
2022/11/11 09:12:25;;;;;;;22.10;9.43;;;12.10;99.90;;;;;;5060793;28;20311;-87
2022/11/11 09:15:32;;;;;;;17.08;9.75;;;12.20;99.90;;;;;;5059879;28;20216;-84
2022/11/11 09:18:41;;;;;;;16.23;9.30;;;12.10;99.90;;;;;;5057597;28;20505;-84
2022/11/11 09:21:48;;;;;;;16.80;9.13;;;12.10;99.90;;;;;;5063170;28;20314;-80
2022/11/11 09:24:55;;;;;;;17.55;9.20;;;12.10;99.90;;;;;;5063584;28;20228;-83
2022/11/11 09:28:02;;;;;;;19.25;9.13;;;12.20;99.90;;;;;;5070919;28;20212;-85
2022/11/11 09:31:09;;;;;;;22.30;9.60;;;12.20;99.90;;;;;;5069891;28;20749;-82
2022/11/11 09:34:38;;;;;;;24.00;9.45;;;12.20;99.90;;;;;;5062406;28;20213;-82
2022/11/11 09:37:53;;;;;;;19.48;9.15;;;12.20;99.90;;;;;;5062676;28;20235;-84
2022/11/11 09:41:15;;;;;;;20.67;9.27;;;12.30;99.90;;;;;;5065118;28;20231;-83
2022/11/11 09:44:41;;;;;;;16.40;8.32;;;12.20;99.90;;;;;;5055993;28;20224;-81
2022/11/11 09:47:57;;;;;;;20.27;9.07;;;12.30;99.90;;;;;;5063691;28;20232;-84
2022/11/11 09:51:20;;;;;;;16.38;8.93;;;12.30;99.90;;;;;;5058695;28;20365;-81
2022/11/11 09:54:35;;;;;;;18.67;8.55;;;12.20;99.90;;;;;;5058445;28;20233;-81
2022/11/11 09:57:48;;;;;;;20.05;8.57;;;12.20;99.90;;;;;;5058389;28;20247;-79
2022/11/11 20:52:28;;;;;;;29.30;17.05;;;11.70;99.90;;;;;;5040514;27;20561;-81
2022/11/11 20:55:36;;;;;;;26.80;16.38;;;11.60;99.90;;;;;;5017250;28;20221;-83
2022/11/11 20:58:43;;;;;;;30.75;17.98;;;11.60;99.90;;;;;;5015829;28;20664;-82
2022/11/11 21:01:53;;;;;;;28.10;17.83;;;11.70;99.90;;;;;;5018653;28;20229;-81
2022/11/11 21:05:00;;;;;;;33.60;17.83;;;11.60;99.90;;;;;;5023643;28;20365;-81
2022/11/11 21:08:09;;;;;;;35.85;18.10;;;11.60;99.90;;;;;;5029176;28;20217;-79
2022/11/11 21:11:18;;;;;;;29.45;17.60;;;11.60;99.90;;;;;;5034115;28;20934;-81
2022/11/11 21:14:25;;;;;;;27.95;18.27;;;11.60;99.90;;;;;;5036800;28;20682;-81
2022/11/11 21:17:32;;;;;;;27.23;16.90;;;11.60;99.90;;;;;;5032216;28;20304;-81
2022/11/11 21:20:40;;;;;;;26.30;16.50;;;11.60;99.90;;;;;;5016426;28;20226;-81
2022/11/11 21:23:49;;;;;;;30.42;19.08;;;11.60;99.90;;;;;;5023924;28;20282;-80
2022/11/11 21:26:56;;;;;;;23.73;16.42;;;11.60;99.90;;;;;;5036313;28;20927;-80
2022/11/11 21:30:03;;;;;;;24.98;16.60;;;11.70;99.90;;;;;;5033645;28;20228;-81
2022/11/11 21:33:11;;;;;;;30.60;16.80;;;11.70;99.90;;;;;;5033707;28;20253;-81
2022/11/11 21:36:19;;;;;;;27.67;15.77;;;11.70;99.90;;;;;;5032088;28;20228;-81
2022/11/11 21:39:28;;;;;;;23.65;16.00;;;11.60;99.90;;;;;;5039163;28;20699;-82
2022/11/11 21:42:35;;;;;;;27.95;17.10;;;11.60;99.90;;;;;;5038612;28;20243;-80
2022/11/11 21:45:42;;;;;;;26.85;16.25;;;11.70;99.90;;;;;;5037353;28;20316;-80
2022/11/11 21:48:51;;;;;;;27.02;16.30;;;11.60;99.90;;;;;;5034088;28;20316;-81
2022/11/11 21:51:58;;;;;;;25.67;16.85;;;11.60;99.90;;;;;;5032248;28;20720;-85
2022/11/11 21:55:07;;;;;;;29.73;16.58;;;11.60;99.90;;;;;;5023853;28;20221;-82
2022/11/11 21:58:15;;;;;;;25.35;15.90;;;11.60;99.90;;;;;;5016525;28;20226;-82
2022/11/11 22:01:25;;;;;;;25.30;16.13;;;11.70;99.90;;;;;;5036372;28;20591;-85
2022/11/11 22:04:36;;;;;;;22.85;15.90;;;11.70;99.90;;;;;;5027345;28;20217;-81
2022/11/11 22:07:44;;;;;;;23.60;16.13;;;11.70;99.90;;;;;;5020510;28;20256;-82
2022/11/11 22:10:53;;;;;;;25.95;16.15;;;11.80;99.90;;;;;;5024272;28;20217;-82
2022/11/11 22:14:02;;;;;;;24.55;15.07;;;11.80;99.90;;;;;;5015187;28;20233;-81
2022/11/11 22:17:09;;;;;;;27.15;15.20;;;11.80;99.90;;;;;;5005073;28;20619;-81
2022/11/11 22:20:16;;;;;;;25.25;15.50;;;11.70;99.90;;;;;;5020665;28;20698;-79
2022/11/11 22:23:23;;;;;;;28.05;16.08;;;11.70;99.90;;;;;;5025727;28;20225;-80
2022/11/11 22:26:34;;;;;;;23.75;15.38;;;11.70;99.90;;;;;;5020021;28;21003;-81
2022/11/11 22:29:41;;;;;;;24.00;15.60;;;11.60;99.90;;;;;;5022373;28;20645;-81
2022/11/11 22:32:54;;;;;;;25.13;16.08;;;11.70;99.90;;;;;;5023979;28;20259;-81
2022/11/11 22:36:01;;;;;;;25.17;15.57;;;11.60;99.90;;;;;;5001238;28;20218;-82
2022/11/11 22:39:09;;;;;;;28.35;16.05;;;11.70;99.90;;;;;;5027913;28;20569;-81
2022/11/11 22:42:17;;;;;;;24.05;15.80;;;11.70;99.90;;;;;;5016869;28;20976;-81
2022/11/11 22:45:25;;;;;;;23.10;15.20;;;11.70;99.90;;;;;;5020663;28;20241;-82
2022/11/11 22:48:32;;;;;;;29.73;15.57;;;11.80;99.90;;;;;;5003644;28;20229;-80
2022/11/11 22:51:42;;;;;;;20.98;14.80;;;11.70;99.90;;;;;;5013655;28;20237;-78
2022/11/11 22:54:50;;;;;;;22.65;14.95;;;11.70;99.90;;;;;;5014244;28;20217;-79
2022/11/11 22:57:59;;;;;;;24.00;15.88;;;11.70;99.90;;;;;;5025416;28;20705;-79
2022/11/11 23:01:09;;;;;;;27.05;15.63;;;11.80;99.90;;;;;;5010515;28;20217;-79
2022/11/11 23:04:16;;;;;;;23.42;15.70;;;11.70;99.90;;;;;;5022926;28;20245;-80
2022/11/11 23:07:23;;;;;;;26.20;15.25;;;11.70;99.90;;;;;;5021371;28;20221;-80
2022/11/11 23:10:31;;;;;;;27.25;15.82;;;11.70;99.90;;;;;;5020895;28;20224;-78
2022/11/11 23:13:41;;;;;;;25.60;16.45;;;11.80;99.90;;;;;;5021227;28;21206;-80
2022/11/11 23:16:48;;;;;;;26.85;15.90;;;11.80;99.90;;;;;;5024486;28;20229;-79
2022/11/11 23:19:55;;;;;;;28.92;16.90;;;11.70;99.90;;;;;;5023183;28;20597;-79
2022/11/11 23:23:02;;;;;;;25.35;15.75;;;11.80;99.90;;;;;;5020873;28;20233;-80
2022/11/11 23:26:11;;;;;;;27.08;17.15;;;11.90;99.90;;;;;;5003703;28;20226;-80
2022/11/11 23:29:20;;;;;;;27.17;17.10;;;11.90;99.90;;;;;;5007968;28;20222;-83
2022/11/11 23:32:27;;;;;;;26.65;16.85;;;11.80;99.90;;;;;;5024624;28;20237;-82
2022/11/11 23:35:34;;;;;;;27.52;16.83;;;11.90;99.90;;;;;;5022633;28;20217;-81
2022/11/11 23:38:42;;;;;;;25.23;16.58;;;11.80;99.90;;;;;;5021805;28;20221;-82
2022/11/11 23:41:49;;;;;;;24.30;16.27;;;11.90;99.90;;;;;;5026790;28;20224;-83
2022/11/11 23:44:57;;;;;;;23.95;16.88;;;12.00;99.90;;;;;;5018385;28;20232;-81
2022/11/11 23:48:04;;;;;;;27.70;17.45;;;12.00;99.90;;;;;;5021995;28;20221;-81
2022/11/11 23:51:12;;;;;;;27.20;17.23;;;12.00;99.90;;;;;;5013598;28;20217;-81
2022/11/11 23:54:19;;;;;;;26.55;17.15;;;12.00;99.90;;;;;;5021638;28;20226;-78
2022/11/11 23:57:26;;;;;;;25.40;15.95;;;12.00;99.90;;;;;;5014687;28;20225;-78
